sensor_id;sensor_type;location;lat;lon;timestamp;P1;durP1;ratioP1;P2;durP2;ratioP2
1699;SDS011;847;48.058;7.810;2023-07-29T00:02:18;1.33;;;1.23;;
1699;SDS011;847;48.058;7.810;2023-07-29T00:04:45;1.17;;;1.07;;
1699;SDS011;847;48.058;7.810;2023-07-29T00:07:11;3.53;;;1.43;;
1699;SDS011;847;48.058;7.810;2023-07-29T00:09:38;1.53;;;1.30;;
1699;SDS011;847;48.058;7.810;2023-07-29T00:12:07;1.50;;;1.30;;
1699;SDS011;847;48.058;7.810;2023-07-29T00:14:33;6.50;;;1.63;;
1699;SDS011;847;48.058;7.810;2023-07-29T00:17:00;1.60;;;1.40;;
1699;SDS011;847;48.058;7.810;2023-07-29T00:19:27;1.90;;;1.20;;
1699;SDS011;847;48.058;7.810;2023-07-29T00:21:54;2.37;;;1.30;;
1699;SDS011;847;48.058;7.810;2023-07-29T00:24:20;3.10;;;1.57;;
1699;SDS011;847;48.058;7.810;2023-07-29T00:26:47;2.37;;;1.53;;
1699;SDS011;847;48.058;7.810;2023-07-29T00:29:15;2.60;;;1.53;;
1699;SDS011;847;48.058;7.810;2023-07-29T00:31:42;1.70;;;1.20;;
1699;SDS011;847;48.058;7.810;2023-07-29T00:34:09;2.07;;;1.20;;
1699;SDS011;847;48.058;7.810;2023-07-29T00:36:35;2.17;;;1.50;;
1699;SDS011;847;48.058;7.810;2023-07-29T00:39:02;1.53;;;1.43;;
1699;SDS011;847;48.058;7.810;2023-07-29T00:41:29;1.70;;;1.33;;
1699;SDS011;847;48.058;7.810;2023-07-29T00:43:56;2.97;;;1.23;;
1699;SDS011;847;48.058;7.810;2023-07-29T00:46:24;1.43;;;1.20;;
1699;SDS011;847;48.058;7.810;2023-07-29T00:48:51;4.97;;;1.37;;
1699;SDS011;847;48.058;7.810;2023-07-29T00:51:17;4.43;;;1.50;;
1699;SDS011;847;48.058;7.810;2023-07-29T00:53:44;3.43;;;1.20;;
1699;SDS011;847;48.058;7.810;2023-07-29T00:56:11;1.90;;;1.67;;
1699;SDS011;847;48.058;7.810;2023-07-29T00:58:38;3.63;;;1.73;;
1699;SDS011;847;48.058;7.810;2023-07-29T01:01:04;1.47;;;1.23;;
1699;SDS011;847;48.058;7.810;2023-07-29T01:03:33;7.53;;;1.70;;
1699;SDS011;847;48.058;7.810;2023-07-29T01:06:04;2.00;;;1.60;;
1699;SDS011;847;48.058;7.810;2023-07-29T01:08:40;3.77;;;1.40;;
1699;SDS011;847;48.058;7.810;2023-07-29T01:11:29;1.60;;;1.40;;
1699;SDS011;847;48.058;7.810;2023-07-29T01:14:03;3.13;;;1.50;;
1699;SDS011;847;48.058;7.810;2023-07-29T01:16:34;1.53;;;1.40;;
1699;SDS011;847;48.058;7.810;2023-07-29T01:19:09;3.47;;;1.63;;
1699;SDS011;847;48.058;7.810;2023-07-29T01:21:59;2.20;;;1.23;;
1699;SDS011;847;48.058;7.810;2023-07-29T01:24:28;1.90;;;1.50;;
1699;SDS011;847;48.058;7.810;2023-07-29T01:26:54;2.03;;;1.63;;
1699;SDS011;847;48.058;7.810;2023-07-29T01:29:21;3.60;;;1.73;;
1699;SDS011;847;48.058;7.810;2023-07-29T01:31:48;1.70;;;1.60;;
1699;SDS011;847;48.058;7.810;2023-07-29T01:34:22;3.20;;;1.70;;
1699;SDS011;847;48.058;7.810;2023-07-29T01:36:53;3.00;;;1.73;;
1699;SDS011;847;48.058;7.810;2023-07-29T01:39:23;1.67;;;1.10;;
1699;SDS011;847;48.058;7.810;2023-07-29T01:41:53;2.33;;;1.70;;
1699;SDS011;847;48.058;7.810;2023-07-29T01:44:20;1.73;;;1.63;;
1699;SDS011;847;48.058;7.810;2023-07-29T01:46:47;3.50;;;1.50;;
1699;SDS011;847;48.058;7.810;2023-07-29T01:49:13;2.60;;;1.50;;
1699;SDS011;847;48.058;7.810;2023-07-29T01:51:40;2.07;;;1.60;;
1699;SDS011;847;48.058;7.810;2023-07-29T01:54:07;2.73;;;2.10;;
1699;SDS011;847;48.058;7.810;2023-07-29T01:56:34;2.33;;;1.77;;
1699;SDS011;847;48.058;7.810;2023-07-29T01:59:03;4.33;;;1.60;;
1699;SDS011;847;48.058;7.810;2023-07-29T02:01:30;1.90;;;1.67;;
1699;SDS011;847;48.058;7.810;2023-07-29T02:03:57;5.63;;;1.87;;
1699;SDS011;847;48.058;7.810;2023-07-29T02:06:23;2.27;;;1.50;;
1699;SDS011;847;48.058;7.810;2023-07-29T02:08:51;2.67;;;1.60;;
1699;SDS011;847;48.058;7.810;2023-07-29T02:11:18;6.30;;;1.70;;
1699;SDS011;847;48.058;7.810;2023-07-29T02:13:45;2.53;;;1.60;;
1699;SDS011;847;48.058;7.810;2023-07-29T02:16:13;2.67;;;1.83;;
1699;SDS011;847;48.058;7.810;2023-07-29T02:18:40;1.87;;;1.40;;
1699;SDS011;847;48.058;7.810;2023-07-29T02:21:06;3.90;;;1.63;;
1699;SDS011;847;48.058;7.810;2023-07-29T02:23:33;2.13;;;1.63;;
1699;SDS011;847;48.058;7.810;2023-07-29T02:26:00;3.73;;;1.87;;
1699;SDS011;847;48.058;7.810;2023-07-29T02:28:27;2.40;;;1.83;;
1699;SDS011;847;48.058;7.810;2023-07-29T02:31:08;5.20;;;1.93;;
1699;SDS011;847;48.058;7.810;2023-07-29T02:33:38;2.90;;;1.70;;
1699;SDS011;847;48.058;7.810;2023-07-29T02:36:04;4.00;;;1.90;;
1699;SDS011;847;48.058;7.810;2023-07-29T02:38:31;3.90;;;1.80;;
1699;SDS011;847;48.058;7.810;2023-07-29T02:40:58;4.50;;;1.47;;
1699;SDS011;847;48.058;7.810;2023-07-29T02:43:24;2.70;;;2.00;;
1699;SDS011;847;48.058;7.810;2023-07-29T02:45:51;4.83;;;1.60;;
1699;SDS011;847;48.058;7.810;2023-07-29T02:48:18;5.17;;;1.77;;
1699;SDS011;847;48.058;7.810;2023-07-29T02:50:46;1.83;;;1.70;;
1699;SDS011;847;48.058;7.810;2023-07-29T02:53:13;5.20;;;2.57;;
1699;SDS011;847;48.058;7.810;2023-07-29T02:55:40;2.50;;;1.20;;
1699;SDS011;847;48.058;7.810;2023-07-29T02:58:07;3.53;;;1.20;;
1699;SDS011;847;48.058;7.810;2023-07-29T03:00:33;12.30;;;1.73;;
1699;SDS011;847;48.058;7.810;2023-07-29T03:03:00;2.33;;;1.40;;
1699;SDS011;847;48.058;7.810;2023-07-29T03:05:27;2.73;;;1.40;;
1699;SDS011;847;48.058;7.810;2023-07-29T03:07:55;2.30;;;1.97;;
1699;SDS011;847;48.058;7.810;2023-07-29T03:10:23;1.80;;;1.40;;
1699;SDS011;847;48.058;7.810;2023-07-29T03:12:50;1.60;;;1.50;;
1699;SDS011;847;48.058;7.810;2023-07-29T03:15:22;4.43;;;1.60;;
1699;SDS011;847;48.058;7.810;2023-07-29T03:17:49;4.43;;;1.80;;
1699;SDS011;847;48.058;7.810;2023-07-29T03:20:16;3.87;;;1.40;;
1699;SDS011;847;48.058;7.810;2023-07-29T03:22:43;4.27;;;1.57;;
1699;SDS011;847;48.058;7.810;2023-07-29T03:25:12;1.80;;;1.50;;
1699;SDS011;847;48.058;7.810;2023-07-29T03:27:39;3.27;;;1.70;;
1699;SDS011;847;48.058;7.810;2023-07-29T03:30:06;2.97;;;1.70;;
1699;SDS011;847;48.058;7.810;2023-07-29T03:32:33;2.27;;;1.50;;
1699;SDS011;847;48.058;7.810;2023-07-29T03:35:00;4.70;;;1.70;;
1699;SDS011;847;48.058;7.810;2023-07-29T03:37:26;2.80;;;1.60;;
1699;SDS011;847;48.058;7.810;2023-07-29T03:39:53;2.47;;;1.80;;
1699;SDS011;847;48.058;7.810;2023-07-29T03:42:21;2.67;;;1.37;;
1699;SDS011;847;48.058;7.810;2023-07-29T03:44:48;3.33;;;1.63;;
1699;SDS011;847;48.058;7.810;2023-07-29T03:47:15;1.37;;;1.27;;
1699;SDS011;847;48.058;7.810;2023-07-29T03:49:41;3.80;;;1.77;;
1699;SDS011;847;48.058;7.810;2023-07-29T03:52:08;8.00;;;2.00;;
1699;SDS011;847;48.058;7.810;2023-07-29T03:54:35;3.30;;;1.57;;
1699;SDS011;847;48.058;7.810;2023-07-29T03:57:02;1.63;;;1.30;;
1699;SDS011;847;48.058;7.810;2023-07-29T03:59:30;3.23;;;1.40;;
1699;SDS011;847;48.058;7.810;2023-07-29T04:01:57;3.10;;;1.50;;
1699;SDS011;847;48.058;7.810;2023-07-29T04:04:24;1.50;;;1.30;;
1699;SDS011;847;48.058;7.810;2023-07-29T04:06:51;1.97;;;1.80;;
1699;SDS011;847;48.058;7.810;2023-07-29T04:09:18;2.03;;;1.50;;
1699;SDS011;847;48.058;7.810;2023-07-29T04:11:44;2.13;;;1.57;;
1699;SDS011;847;48.058;7.810;2023-07-29T04:14:11;1.37;;;1.27;;
1699;SDS011;847;48.058;7.810;2023-07-29T04:16:39;1.70;;;1.60;;
1699;SDS011;847;48.058;7.810;2023-07-29T04:19:06;1.93;;;1.67;;
1699;SDS011;847;48.058;7.810;2023-07-29T04:21:33;2.00;;;1.63;;
1699;SDS011;847;48.058;7.810;2023-07-29T04:23:59;2.00;;;1.80;;
1699;SDS011;847;48.058;7.810;2023-07-29T04:26:26;2.90;;;1.40;;
1699;SDS011;847;48.058;7.810;2023-07-29T04:28:53;2.67;;;1.80;;
1699;SDS011;847;48.058;7.810;2023-07-29T04:31:19;1.97;;;1.30;;
1699;SDS011;847;48.058;7.810;2023-07-29T04:33:47;3.30;;;1.63;;
1699;SDS011;847;48.058;7.810;2023-07-29T04:36:14;1.83;;;1.50;;
1699;SDS011;847;48.058;7.810;2023-07-29T04:38:41;2.33;;;2.13;;
1699;SDS011;847;48.058;7.810;2023-07-29T04:41:08;2.03;;;1.80;;
1699;SDS011;847;48.058;7.810;2023-07-29T04:43:34;2.30;;;1.70;;
1699;SDS011;847;48.058;7.810;2023-07-29T04:46:01;3.50;;;1.70;;
1699;SDS011;847;48.058;7.810;2023-07-29T04:48:28;2.23;;;1.50;;
1699;SDS011;847;48.058;7.810;2023-07-29T04:50:56;3.70;;;1.97;;
1699;SDS011;847;48.058;7.810;2023-07-29T04:53:23;5.43;;;1.63;;
1699;SDS011;847;48.058;7.810;2023-07-29T04:55:49;4.20;;;1.67;;
1699;SDS011;847;48.058;7.810;2023-07-29T04:58:16;3.10;;;1.47;;
1699;SDS011;847;48.058;7.810;2023-07-29T05:00:43;6.13;;;1.80;;
1699;SDS011;847;48.058;7.810;2023-07-29T05:03:10;5.40;;;3.10;;
1699;SDS011;847;48.058;7.810;2023-07-29T05:05:36;2.77;;;1.50;;
1699;SDS011;847;48.058;7.810;2023-07-29T05:08:04;2.80;;;1.40;;
1699;SDS011;847;48.058;7.810;2023-07-29T05:10:31;7.33;;;1.93;;
1699;SDS011;847;48.058;7.810;2023-07-29T05:12:58;2.20;;;1.77;;
1699;SDS011;847;48.058;7.810;2023-07-29T05:15:25;2.10;;;1.90;;
1699;SDS011;847;48.058;7.810;2023-07-29T05:17:51;4.00;;;1.43;;
1699;SDS011;847;48.058;7.810;2023-07-29T05:20:18;1.70;;;1.60;;
1699;SDS011;847;48.058;7.810;2023-07-29T05:22:45;3.90;;;2.60;;
1699;SDS011;847;48.058;7.810;2023-07-29T05:25:13;3.33;;;2.73;;
1699;SDS011;847;48.058;7.810;2023-07-29T05:27:40;3.30;;;2.60;;
1699;SDS011;847;48.058;7.810;2023-07-29T05:30:07;3.50;;;2.67;;
1699;SDS011;847;48.058;7.810;2023-07-29T05:32:34;3.20;;;2.90;;
1699;SDS011;847;48.058;7.810;2023-07-29T05:35:01;2.83;;;2.50;;
1699;SDS011;847;48.058;7.810;2023-07-29T05:37:28;4.03;;;2.47;;
1699;SDS011;847;48.058;7.810;2023-07-29T05:39:54;3.17;;;2.50;;
1699;SDS011;847;48.058;7.810;2023-07-29T05:42:23;4.00;;;2.70;;
1699;SDS011;847;48.058;7.810;2023-07-29T05:44:49;2.80;;;2.60;;
1699;SDS011;847;48.058;7.810;2023-07-29T05:47:16;6.40;;;2.40;;
1699;SDS011;847;48.058;7.810;2023-07-29T05:49:43;2.63;;;2.23;;
1699;SDS011;847;48.058;7.810;2023-07-29T05:52:09;3.23;;;2.60;;
1699;SDS011;847;48.058;7.810;2023-07-29T05:54:36;2.53;;;2.33;;
1699;SDS011;847;48.058;7.810;2023-07-29T05:57:03;3.53;;;2.23;;
1699;SDS011;847;48.058;7.810;2023-07-29T05:59:32;2.83;;;2.60;;
1699;SDS011;847;48.058;7.810;2023-07-29T06:01:59;3.47;;;2.30;;
1699;SDS011;847;48.058;7.810;2023-07-29T06:04:25;2.70;;;2.50;;
1699;SDS011;847;48.058;7.810;2023-07-29T06:06:52;2.73;;;2.40;;
1699;SDS011;847;48.058;7.810;2023-07-29T06:09:20;2.80;;;2.50;;
1699;SDS011;847;48.058;7.810;2023-07-29T06:11:47;2.93;;;2.67;;
1699;SDS011;847;48.058;7.810;2023-07-29T06:14:14;2.70;;;2.50;;
1699;SDS011;847;48.058;7.810;2023-07-29T06:16:42;4.60;;;3.90;;
1699;SDS011;847;48.058;7.810;2023-07-29T06:19:09;5.30;;;3.40;;
1699;SDS011;847;48.058;7.810;2023-07-29T06:21:36;5.20;;;3.30;;
1699;SDS011;847;48.058;7.810;2023-07-29T06:24:03;5.87;;;3.60;;
1699;SDS011;847;48.058;7.810;2023-07-29T06:26:30;5.57;;;3.33;;
1699;SDS011;847;48.058;7.810;2023-07-29T06:28:56;5.07;;;2.90;;
1699;SDS011;847;48.058;7.810;2023-07-29T06:31:23;4.60;;;3.20;;
1699;SDS011;847;48.058;7.810;2023-07-29T06:33:52;4.20;;;3.17;;
1699;SDS011;847;48.058;7.810;2023-07-29T06:36:19;5.70;;;2.80;;
1699;SDS011;847;48.058;7.810;2023-07-29T06:38:46;3.20;;;2.53;;
1699;SDS011;847;48.058;7.810;2023-07-29T06:41:13;3.53;;;2.77;;
1699;SDS011;847;48.058;7.810;2023-07-29T06:43:40;5.17;;;2.93;;
1699;SDS011;847;48.058;7.810;2023-07-29T06:46:06;3.53;;;3.23;;
1699;SDS011;847;48.058;7.810;2023-07-29T06:48:33;3.50;;;2.90;;
1699;SDS011;847;48.058;7.810;2023-07-29T06:51:01;3.73;;;3.13;;
1699;SDS011;847;48.058;7.810;2023-07-29T06:53:28;4.20;;;2.80;;
1699;SDS011;847;48.058;7.810;2023-07-29T06:55:55;3.27;;;2.97;;
1699;SDS011;847;48.058;7.810;2023-07-29T06:58:22;3.30;;;2.97;;
1699;SDS011;847;48.058;7.810;2023-07-29T07:00:48;5.20;;;3.10;;
1699;SDS011;847;48.058;7.810;2023-07-29T07:03:18;5.10;;;3.57;;
1699;SDS011;847;48.058;7.810;2023-07-29T07:05:45;5.13;;;3.00;;
1699;SDS011;847;48.058;7.810;2023-07-29T07:08:13;6.17;;;3.57;;
1699;SDS011;847;48.058;7.810;2023-07-29T07:10:40;3.60;;;3.03;;
1699;SDS011;847;48.058;7.810;2023-07-29T07:13:06;4.90;;;3.17;;
1699;SDS011;847;48.058;7.810;2023-07-29T07:15:33;3.07;;;2.50;;
1699;SDS011;847;48.058;7.810;2023-07-29T07:18:00;4.23;;;3.20;;
1699;SDS011;847;48.058;7.810;2023-07-29T07:20:26;3.33;;;3.03;;
1699;SDS011;847;48.058;7.810;2023-07-29T07:22:53;3.50;;;2.70;;
1699;SDS011;847;48.058;7.810;2023-07-29T07:25:22;2.90;;;2.70;;
1699;SDS011;847;48.058;7.810;2023-07-29T07:27:48;3.20;;;2.47;;
1699;SDS011;847;48.058;7.810;2023-07-29T07:30:15;2.70;;;2.50;;
1699;SDS011;847;48.058;7.810;2023-07-29T07:32:42;5.40;;;2.93;;
1699;SDS011;847;48.058;7.810;2023-07-29T07:35:10;3.33;;;2.70;;
1699;SDS011;847;48.058;7.810;2023-07-29T07:37:36;8.10;;;3.00;;
1699;SDS011;847;48.058;7.810;2023-07-29T07:40:04;3.40;;;2.87;;
1699;SDS011;847;48.058;7.810;2023-07-29T07:42:33;2.70;;;2.50;;
1699;SDS011;847;48.058;7.810;2023-07-29T07:45:00;2.53;;;2.33;;
1699;SDS011;847;48.058;7.810;2023-07-29T07:47:27;4.57;;;2.90;;
1699;SDS011;847;48.058;7.810;2023-07-29T07:49:54;2.73;;;2.50;;
1699;SDS011;847;48.058;7.810;2023-07-29T07:52:20;2.90;;;2.70;;
1699;SDS011;847;48.058;7.810;2023-07-29T07:54:51;3.23;;;2.40;;
1699;SDS011;847;48.058;7.810;2023-07-29T07:57:18;4.33;;;2.20;;
1699;SDS011;847;48.058;7.810;2023-07-29T07:59:47;3.40;;;2.70;;
1699;SDS011;847;48.058;7.810;2023-07-29T08:02:14;2.80;;;2.50;;
1699;SDS011;847;48.058;7.810;2023-07-29T08:04:40;2.30;;;2.10;;
1699;SDS011;847;48.058;7.810;2023-07-29T08:07:07;3.80;;;3.07;;
1699;SDS011;847;48.058;7.810;2023-07-29T08:09:34;3.97;;;2.70;;
1699;SDS011;847;48.058;7.810;2023-07-29T08:12:01;4.40;;;2.63;;
1699;SDS011;847;48.058;7.810;2023-07-29T08:14:27;3.10;;;2.87;;
1699;SDS011;847;48.058;7.810;2023-07-29T08:16:55;2.57;;;2.27;;
1699;SDS011;847;48.058;7.810;2023-07-29T08:19:22;3.43;;;3.13;;
1699;SDS011;847;48.058;7.810;2023-07-29T08:21:49;2.60;;;2.40;;
1699;SDS011;847;48.058;7.810;2023-07-29T08:24:16;2.93;;;2.60;;
1699;SDS011;847;48.058;7.810;2023-07-29T08:26:42;3.00;;;2.60;;
1699;SDS011;847;48.058;7.810;2023-07-29T08:29:09;3.17;;;2.87;;
1699;SDS011;847;48.058;7.810;2023-07-29T08:31:36;3.07;;;2.80;;
1699;SDS011;847;48.058;7.810;2023-07-29T08:34:04;2.50;;;2.30;;
1699;SDS011;847;48.058;7.810;2023-07-29T08:36:31;3.23;;;2.60;;
1699;SDS011;847;48.058;7.810;2023-07-29T08:38:57;3.07;;;2.77;;
1699;SDS011;847;48.058;7.810;2023-07-29T08:41:25;6.47;;;2.80;;
1699;SDS011;847;48.058;7.810;2023-07-29T08:43:56;3.00;;;2.70;;
1699;SDS011;847;48.058;7.810;2023-07-29T08:46:33;3.90;;;2.73;;
1699;SDS011;847;48.058;7.810;2023-07-29T08:49:12;5.00;;;2.43;;
1699;SDS011;847;48.058;7.810;2023-07-29T08:51:39;3.30;;;3.00;;
1699;SDS011;847;48.058;7.810;2023-07-29T08:54:10;3.70;;;2.83;;
1699;SDS011;847;48.058;7.810;2023-07-29T08:56:37;2.93;;;2.60;;
1699;SDS011;847;48.058;7.810;2023-07-29T08:59:04;3.03;;;2.60;;
1699;SDS011;847;48.058;7.810;2023-07-29T09:01:31;3.60;;;2.60;;
1699;SDS011;847;48.058;7.810;2023-07-29T09:03:58;3.13;;;2.67;;
1699;SDS011;847;48.058;7.810;2023-07-29T09:06:26;3.50;;;2.50;;
1699;SDS011;847;48.058;7.810;2023-07-29T09:08:54;4.60;;;2.90;;
1699;SDS011;847;48.058;7.810;2023-07-29T09:11:21;4.27;;;2.97;;
1699;SDS011;847;48.058;7.810;2023-07-29T09:13:48;3.67;;;3.00;;
1699;SDS011;847;48.058;7.810;2023-07-29T09:16:15;5.90;;;2.53;;
1699;SDS011;847;48.058;7.810;2023-07-29T09:18:42;2.53;;;2.33;;
1699;SDS011;847;48.058;7.810;2023-07-29T09:21:08;3.27;;;2.83;;
1699;SDS011;847;48.058;7.810;2023-07-29T09:23:40;4.67;;;2.60;;
1699;SDS011;847;48.058;7.810;2023-07-29T09:26:07;5.20;;;2.30;;
1699;SDS011;847;48.058;7.810;2023-07-29T09:28:35;2.73;;;2.53;;
1699;SDS011;847;48.058;7.810;2023-07-29T09:31:02;2.80;;;2.30;;
1699;SDS011;847;48.058;7.810;2023-07-29T09:33:29;4.03;;;3.20;;
1699;SDS011;847;48.058;7.810;2023-07-29T09:36:00;2.43;;;2.30;;
1699;SDS011;847;48.058;7.810;2023-07-29T09:38:27;5.00;;;3.30;;
1699;SDS011;847;48.058;7.810;2023-07-29T09:40:56;3.70;;;3.23;;
1699;SDS011;847;48.058;7.810;2023-07-29T09:43:25;3.60;;;3.23;;
1699;SDS011;847;48.058;7.810;2023-07-29T09:45:52;3.63;;;3.33;;
1699;SDS011;847;48.058;7.810;2023-07-29T09:48:19;3.50;;;3.20;;
1699;SDS011;847;48.058;7.810;2023-07-29T09:50:48;2.97;;;2.73;;
1699;SDS011;847;48.058;7.810;2023-07-29T09:53:15;2.77;;;2.47;;
1699;SDS011;847;48.058;7.810;2023-07-29T09:55:45;5.30;;;3.47;;
1699;SDS011;847;48.058;7.810;2023-07-29T09:58:14;3.80;;;3.50;;
1699;SDS011;847;48.058;7.810;2023-07-29T10:00:52;3.43;;;3.03;;
1699;SDS011;847;48.058;7.810;2023-07-29T10:03:19;3.20;;;2.90;;
1699;SDS011;847;48.058;7.810;2023-07-29T10:05:47;3.83;;;3.00;;
1699;SDS011;847;48.058;7.810;2023-07-29T10:08:15;3.53;;;3.03;;
1699;SDS011;847;48.058;7.810;2023-07-29T10:10:42;5.93;;;3.00;;
1699;SDS011;847;48.058;7.810;2023-07-29T10:13:09;4.13;;;2.80;;
1699;SDS011;847;48.058;7.810;2023-07-29T10:15:38;5.13;;;3.23;;
1699;SDS011;847;48.058;7.810;2023-07-29T10:18:05;5.30;;;3.07;;
1699;SDS011;847;48.058;7.810;2023-07-29T10:20:32;4.40;;;3.23;;
1699;SDS011;847;48.058;7.810;2023-07-29T10:23:00;3.30;;;3.00;;
1699;SDS011;847;48.058;7.810;2023-07-29T10:25:35;3.33;;;3.13;;
1699;SDS011;847;48.058;7.810;2023-07-29T10:28:07;2.77;;;2.57;;
1699;SDS011;847;48.058;7.810;2023-07-29T10:30:34;3.27;;;2.97;;
1699;SDS011;847;48.058;7.810;2023-07-29T10:33:03;2.80;;;2.60;;
1699;SDS011;847;48.058;7.810;2023-07-29T10:35:31;3.00;;;2.70;;
1699;SDS011;847;48.058;7.810;2023-07-29T10:37:59;3.83;;;2.40;;
1699;SDS011;847;48.058;7.810;2023-07-29T10:40:29;2.40;;;2.20;;
1699;SDS011;847;48.058;7.810;2023-07-29T10:43:10;4.03;;;3.27;;
1699;SDS011;847;48.058;7.810;2023-07-29T10:45:40;2.83;;;2.53;;
1699;SDS011;847;48.058;7.810;2023-07-29T10:48:11;4.47;;;3.20;;
1699;SDS011;847;48.058;7.810;2023-07-29T10:50:39;2.20;;;2.10;;
1699;SDS011;847;48.058;7.810;2023-07-29T10:53:06;3.97;;;2.97;;
1699;SDS011;847;48.058;7.810;2023-07-29T10:55:33;3.50;;;2.93;;
1699;SDS011;847;48.058;7.810;2023-07-29T10:58:05;3.40;;;2.70;;
1699;SDS011;847;48.058;7.810;2023-07-29T11:00:33;2.60;;;2.40;;
1699;SDS011;847;48.058;7.810;2023-07-29T11:03:01;3.50;;;3.20;;
1699;SDS011;847;48.058;7.810;2023-07-29T11:05:42;2.60;;;2.40;;
1699;SDS011;847;48.058;7.810;2023-07-29T11:08:17;5.80;;;3.03;;
1699;SDS011;847;48.058;7.810;2023-07-29T11:10:57;2.47;;;2.30;;
1699;SDS011;847;48.058;7.810;2023-07-29T11:13:26;3.10;;;2.80;;
1699;SDS011;847;48.058;7.810;2023-07-29T11:15:53;3.63;;;2.87;;
1699;SDS011;847;48.058;7.810;2023-07-29T11:18:21;2.27;;;2.07;;
1699;SDS011;847;48.058;7.810;2023-07-29T11:20:49;2.70;;;2.47;;
1699;SDS011;847;48.058;7.810;2023-07-29T11:23:16;2.70;;;2.50;;
1699;SDS011;847;48.058;7.810;2023-07-29T11:25:43;2.60;;;2.40;;
1699;SDS011;847;48.058;7.810;2023-07-29T11:28:11;2.13;;;2.03;;
1699;SDS011;847;48.058;7.810;2023-07-29T11:30:38;3.07;;;2.37;;
1699;SDS011;847;48.058;7.810;2023-07-29T11:33:05;4.07;;;2.60;;
1699;SDS011;847;48.058;7.810;2023-07-29T11:35:32;3.23;;;2.93;;
1699;SDS011;847;48.058;7.810;2023-07-29T11:38:00;2.20;;;2.10;;
1699;SDS011;847;48.058;7.810;2023-07-29T11:40:27;2.50;;;2.30;;
1699;SDS011;847;48.058;7.810;2023-07-29T11:42:54;2.70;;;2.37;;
1699;SDS011;847;48.058;7.810;2023-07-29T11:45:22;2.50;;;2.30;;
1699;SDS011;847;48.058;7.810;2023-07-29T11:47:49;4.73;;;2.20;;
1699;SDS011;847;48.058;7.810;2023-07-29T11:50:15;2.80;;;2.17;;
1699;SDS011;847;48.058;7.810;2023-07-29T11:52:43;2.93;;;2.17;;
1699;SDS011;847;48.058;7.810;2023-07-29T11:55:12;2.83;;;2.17;;
1699;SDS011;847;48.058;7.810;2023-07-29T11:57:40;4.00;;;2.33;;
1699;SDS011;847;48.058;7.810;2023-07-29T12:00:08;2.47;;;2.33;;
1699;SDS011;847;48.058;7.810;2023-07-29T12:02:37;2.20;;;2.03;;
1699;SDS011;847;48.058;7.810;2023-07-29T12:05:05;3.03;;;2.20;;
1699;SDS011;847;48.058;7.810;2023-07-29T12:07:34;1.93;;;1.83;;
1699;SDS011;847;48.058;7.810;2023-07-29T12:10:01;2.50;;;2.30;;
1699;SDS011;847;48.058;7.810;2023-07-29T12:12:30;2.30;;;2.10;;
1699;SDS011;847;48.058;7.810;2023-07-29T12:14:57;2.27;;;2.07;;
1699;SDS011;847;48.058;7.810;2023-07-29T12:17:24;2.93;;;2.40;;
1699;SDS011;847;48.058;7.810;2023-07-29T12:19:53;2.00;;;1.67;;
1699;SDS011;847;48.058;7.810;2023-07-29T12:22:21;2.23;;;2.03;;
1699;SDS011;847;48.058;7.810;2023-07-29T12:24:48;2.73;;;2.33;;
1699;SDS011;847;48.058;7.810;2023-07-29T12:27:18;2.30;;;2.10;;
1699;SDS011;847;48.058;7.810;2023-07-29T12:29:49;3.17;;;2.23;;
1699;SDS011;847;48.058;7.810;2023-07-29T12:32:18;2.40;;;2.20;;
1699;SDS011;847;48.058;7.810;2023-07-29T12:34:45;2.77;;;2.47;;
1699;SDS011;847;48.058;7.810;2023-07-29T12:37:11;3.57;;;2.50;;
1699;SDS011;847;48.058;7.810;2023-07-29T12:39:40;3.30;;;3.00;;
1699;SDS011;847;48.058;7.810;2023-07-29T12:42:07;3.70;;;2.73;;
1699;SDS011;847;48.058;7.810;2023-07-29T12:44:34;3.00;;;2.40;;
1699;SDS011;847;48.058;7.810;2023-07-29T12:47:04;2.70;;;2.50;;
1699;SDS011;847;48.058;7.810;2023-07-29T12:49:33;3.13;;;2.83;;
1699;SDS011;847;48.058;7.810;2023-07-29T12:52:00;3.77;;;2.20;;
1699;SDS011;847;48.058;7.810;2023-07-29T12:54:27;2.47;;;2.17;;
1699;SDS011;847;48.058;7.810;2023-07-29T12:56:54;3.90;;;2.10;;
1699;SDS011;847;48.058;7.810;2023-07-29T12:59:21;2.47;;;2.27;;
1699;SDS011;847;48.058;7.810;2023-07-29T13:01:47;3.00;;;2.27;;
1699;SDS011;847;48.058;7.810;2023-07-29T13:04:15;1.97;;;1.87;;
1699;SDS011;847;48.058;7.810;2023-07-29T13:06:42;2.37;;;2.20;;
1699;SDS011;847;48.058;7.810;2023-07-29T13:09:09;1.90;;;1.80;;
1699;SDS011;847;48.058;7.810;2023-07-29T13:11:35;2.23;;;1.90;;
1699;SDS011;847;48.058;7.810;2023-07-29T13:14:02;2.90;;;2.40;;
1699;SDS011;847;48.058;7.810;2023-07-29T13:16:29;2.80;;;2.50;;
1699;SDS011;847;48.058;7.810;2023-07-29T13:18:56;2.80;;;2.37;;
1699;SDS011;847;48.058;7.810;2023-07-29T13:21:24;2.33;;;2.13;;
1699;SDS011;847;48.058;7.810;2023-07-29T13:23:51;2.30;;;1.90;;
1699;SDS011;847;48.058;7.810;2023-07-29T13:26:18;2.30;;;2.10;;
1699;SDS011;847;48.058;7.810;2023-07-29T13:28:45;2.37;;;2.17;;
1699;SDS011;847;48.058;7.810;2023-07-29T13:31:11;2.80;;;2.50;;
1699;SDS011;847;48.058;7.810;2023-07-29T13:33:38;2.47;;;2.27;;
1699;SDS011;847;48.058;7.810;2023-07-29T13:36:05;2.40;;;2.20;;
1699;SDS011;847;48.058;7.810;2023-07-29T13:38:34;1.63;;;1.53;;
1699;SDS011;847;48.058;7.810;2023-07-29T13:41:01;2.57;;;2.20;;
1699;SDS011;847;48.058;7.810;2023-07-29T13:43:28;2.53;;;2.30;;
1699;SDS011;847;48.058;7.810;2023-07-29T13:45:55;2.20;;;2.00;;
1699;SDS011;847;48.058;7.810;2023-07-29T13:48:21;2.40;;;2.20;;
1699;SDS011;847;48.058;7.810;2023-07-29T13:50:48;3.37;;;2.50;;
1699;SDS011;847;48.058;7.810;2023-07-29T13:53:16;2.17;;;1.97;;
1699;SDS011;847;48.058;7.810;2023-07-29T13:55:44;4.20;;;2.23;;
1699;SDS011;847;48.058;7.810;2023-07-29T13:58:10;3.00;;;2.47;;
1699;SDS011;847;48.058;7.810;2023-07-29T14:00:37;5.00;;;3.07;;
1699;SDS011;847;48.058;7.810;2023-07-29T14:03:04;2.60;;;2.40;;
1699;SDS011;847;48.058;7.810;2023-07-29T14:05:31;2.47;;;2.27;;
1699;SDS011;847;48.058;7.810;2023-07-29T14:07:57;2.80;;;2.60;;
1699;SDS011;847;48.058;7.810;2023-07-29T14:10:24;3.27;;;2.33;;
1699;SDS011;847;48.058;7.810;2023-07-29T14:12:52;4.40;;;3.50;;
1699;SDS011;847;48.058;7.810;2023-07-29T14:15:20;3.70;;;3.17;;
1699;SDS011;847;48.058;7.810;2023-07-29T14:17:47;3.30;;;2.87;;
1699;SDS011;847;48.058;7.810;2023-07-29T14:20:14;3.10;;;2.60;;
1699;SDS011;847;48.058;7.810;2023-07-29T14:22:40;3.17;;;1.90;;
1699;SDS011;847;48.058;7.810;2023-07-29T14:25:07;2.73;;;2.23;;
1699;SDS011;847;48.058;7.810;2023-07-29T14:27:34;2.80;;;2.50;;
1699;SDS011;847;48.058;7.810;2023-07-29T14:30:02;2.67;;;2.47;;
1699;SDS011;847;48.058;7.810;2023-07-29T14:32:30;2.33;;;2.10;;
1699;SDS011;847;48.058;7.810;2023-07-29T14:34:56;2.40;;;2.20;;
1699;SDS011;847;48.058;7.810;2023-07-29T14:37:23;2.63;;;2.43;;
1699;SDS011;847;48.058;7.810;2023-07-29T14:39:50;2.20;;;2.00;;
1699;SDS011;847;48.058;7.810;2023-07-29T14:42:18;3.40;;;2.83;;
1699;SDS011;847;48.058;7.810;2023-07-29T14:44:45;2.93;;;2.40;;
1699;SDS011;847;48.058;7.810;2023-07-29T14:47:13;2.73;;;2.40;;
1699;SDS011;847;48.058;7.810;2023-07-29T14:49:40;3.17;;;2.50;;
1699;SDS011;847;48.058;7.810;2023-07-29T14:52:07;3.47;;;2.77;;
1699;SDS011;847;48.058;7.810;2023-07-29T14:54:33;4.20;;;3.17;;
1699;SDS011;847;48.058;7.810;2023-07-29T14:57:00;3.10;;;2.50;;
1699;SDS011;847;48.058;7.810;2023-07-29T14:59:27;4.13;;;3.43;;
1699;SDS011;847;48.058;7.810;2023-07-29T15:01:54;3.47;;;3.17;;
1699;SDS011;847;48.058;7.810;2023-07-29T15:04:22;3.87;;;3.20;;
1699;SDS011;847;48.058;7.810;2023-07-29T15:06:49;14.50;;;9.30;;
1699;SDS011;847;48.058;7.810;2023-07-29T15:09:15;13.30;;;11.83;;
1699;SDS011;847;48.058;7.810;2023-07-29T15:11:42;5.30;;;4.47;;
1699;SDS011;847;48.058;7.810;2023-07-29T15:14:09;3.13;;;2.40;;
1699;SDS011;847;48.058;7.810;2023-07-29T15:16:36;3.37;;;3.00;;
1699;SDS011;847;48.058;7.810;2023-07-29T15:19:04;3.70;;;3.40;;
1699;SDS011;847;48.058;7.810;2023-07-29T15:21:32;3.70;;;3.40;;
1699;SDS011;847;48.058;7.810;2023-07-29T15:23:59;3.07;;;2.80;;
1699;SDS011;847;48.058;7.810;2023-07-29T15:26:26;5.73;;;2.90;;
1699;SDS011;847;48.058;7.810;2023-07-29T15:28:53;2.93;;;2.73;;
1699;SDS011;847;48.058;7.810;2023-07-29T15:31:20;3.33;;;3.03;;
1699;SDS011;847;48.058;7.810;2023-07-29T15:33:46;3.30;;;3.00;;